Aberdeen, Idaho
Current Conditions -  °F | °C
As of 3:53 AM on Friday 31 Oct 2014 (Local Time) from KPIH Reporting Station
Clear Clear  
Wind Chill: 33°   Ceiling: Unl
Heat Index: 37°   Visibility: 10mi
Dew Point: 31°   Wind: 5mph
Humidity: 79%   Direction: 40°NE
Pressure: 30.02"   Gusts: NA
Location:  42.94°N, 112.84°W
Report Text: KPIH 310953Z AUTO 04004KT 10SM CLR 03/M01 A3002 RMK AO2 SLP143 T00281006
Loading
Personal Weather Stations






























Interactive Weather Map
Tropical Storm Tracking
New forecast layout! Learn more

10-Day Weather Forecast

Advertisements
Track Severe Weather on mobile